sensor_id;sensor_type;location;lat;lon;timestamp;pressure;altitude;pressure_sealevel;temperature;humidity
10348;BME280;5220;43.192;23.284;2022-10-31T00:01:44;97479.25;;;16.01;57.97
10348;BME280;5220;43.192;23.284;2022-10-31T00:04:11;97470.53;;;16.01;58.08
10348;BME280;5220;43.192;23.284;2022-10-31T00:06:39;97467.91;;;16.01;57.96
10348;BME280;5220;43.192;23.284;2022-10-31T00:09:06;97465.28;;;16.01;58.43
10348;BME280;5220;43.192;23.284;2022-10-31T00:11:33;97465.72;;;16.06;58.13
10348;BME280;5220;43.192;23.284;2022-10-31T00:13:59;97471.81;;;16.06;58.53
10348;BME280;5220;43.192;23.284;2022-10-31T00:16:58;97464.63;;;16.08;58.46
10348;BME280;5220;43.192;23.284;2022-10-31T00:19:24;97463.81;;;16.08;58.21
10348;BME280;5220;43.192;23.284;2022-10-31T00:21:53;97470.56;;;16.10;58.24
10348;BME280;5220;43.192;23.284;2022-10-31T00:24:19;97473.19;;;16.10;58.22
10348;BME280;5220;43.192;23.284;2022-10-31T00:26:46;97473.19;;;16.10;58.29
10348;BME280;5220;43.192;23.284;2022-10-31T00:29:13;97474.28;;;16.08;58.12
10348;BME280;5220;43.192;23.284;2022-10-31T00:31:39;97479.81;;;16.05;58.95
10348;BME280;5220;43.192;23.284;2022-10-31T00:34:06;97475.25;;;16.07;58.67
10348;BME280;5220;43.192;23.284;2022-10-31T00:43:18;97473.72;;;16.04;59.03
10348;BME280;5220;43.192;23.284;2022-10-31T00:45:44;97476.34;;;16.04;59.28
10348;BME280;5220;43.192;23.284;2022-10-31T00:48:11;97468.75;;;16.01;58.90
10348;BME280;5220;43.192;23.284;2022-10-31T00:50:38;97469.28;;;15.95;59.08
10348;BME280;5220;43.192;23.284;2022-10-31T00:53:05;97468.63;;;16.03;59.28
10348;BME280;5220;43.192;23.284;2022-10-31T00:58:55;97464.91;;;16.05;58.87
10348;BME280;5220;43.192;23.284;2022-10-31T01:01:21;97457.88;;;16.06;59.45
10348;BME280;5220;43.192;23.284;2022-10-31T01:03:48;97456.75;;;16.08;59.19
10348;BME280;5220;43.192;23.284;2022-10-31T01:06:15;97458.44;;;16.09;59.40
10348;BME280;5220;43.192;23.284;2022-10-31T01:08:42;97458.28;;;16.11;59.28
10348;BME280;5220;43.192;23.284;2022-10-31T01:11:11;97459.81;;;16.13;59.12
10348;BME280;5220;43.192;23.284;2022-10-31T01:13:38;97461.31;;;16.16;59.17
10348;BME280;5220;43.192;23.284;2022-10-31T01:19:28;97472.25;;;16.11;59.09
10348;BME280;5220;43.192;23.284;2022-10-31T01:21:55;97463.41;;;16.12;59.66
10348;BME280;5220;43.192;23.284;2022-10-31T01:24:22;97461.75;;;16.11;59.38
10348;BME280;5220;43.192;23.284;2022-10-31T01:26:48;97461.59;;;16.13;59.43
10348;BME280;5220;43.192;23.284;2022-10-31T01:29:15;97466.03;;;16.12;59.51
10348;BME280;5220;43.192;23.284;2022-10-31T01:31:42;97456.88;;;16.07;60.15
10348;BME280;5220;43.192;23.284;2022-10-31T01:34:13;97467.78;;;16.02;60.48
10348;BME280;5220;43.192;23.284;2022-10-31T01:36:44;97460.19;;;15.99;59.91
10348;BME280;5220;43.192;23.284;2022-10-31T01:39:14;97473.16;;;16.01;60.38
10348;BME280;5220;43.192;23.284;2022-10-31T01:41:42;97474.94;;;16.00;60.12
10348;BME280;5220;43.192;23.284;2022-10-31T01:44:47;97476.88;;;15.98;60.58
10348;BME280;5220;43.192;23.284;2022-10-31T01:47:17;97472.06;;;15.94;60.27
10348;BME280;5220;43.192;23.284;2022-10-31T01:49:48;97473.97;;;15.92;60.18
10348;BME280;5220;43.192;23.284;2022-10-31T01:52:21;97467.06;;;15.91;60.40
10348;BME280;5220;43.192;23.284;2022-10-31T01:54:54;97478.63;;;15.88;60.59
10348;BME280;5220;43.192;23.284;2022-10-31T02:03:52;97471.56;;;15.79;61.30
10348;BME280;5220;43.192;23.284;2022-10-31T02:09:45;97472.91;;;15.74;60.87
10348;BME280;5220;43.192;23.284;2022-10-31T02:12:13;97474.69;;;15.73;61.17
10348;BME280;5220;43.192;23.284;2022-10-31T02:14:40;97476.50;;;15.73;60.79
10348;BME280;5220;43.192;23.284;2022-10-31T02:17:07;97483.56;;;15.72;61.25
10348;BME280;5220;43.192;23.284;2022-10-31T02:19:39;97490.28;;;15.65;60.61
10348;BME280;5220;43.192;23.284;2022-10-31T02:22:11;97491.47;;;15.61;60.79
10348;BME280;5220;43.192;23.284;2022-10-31T02:24:58;97493.69;;;15.56;61.35
10348;BME280;5220;43.192;23.284;2022-10-31T02:27:50;97487.19;;;15.60;61.36
10348;BME280;5220;43.192;23.284;2022-10-31T02:30:24;97494.25;;;15.59;60.80
10348;BME280;5220;43.192;23.284;2022-10-31T02:33:07;97497.56;;;15.62;60.66
10348;BME280;5220;43.192;23.284;2022-10-31T02:36:00;97501.97;;;15.61;61.24
10348;BME280;5220;43.192;23.284;2022-10-31T02:38:38;97506.97;;;15.64;60.74
10348;BME280;5220;43.192;23.284;2022-10-31T02:41:17;97500.72;;;15.55;61.24
10348;BME280;5220;43.192;23.284;2022-10-31T02:43:54;97492.94;;;15.54;61.09
10348;BME280;5220;43.192;23.284;2022-10-31T02:46:43;97503.34;;;15.55;60.66
10348;BME280;5220;43.192;23.284;2022-10-31T02:49:20;97500.72;;;15.55;61.07
10348;BME280;5220;43.192;23.284;2022-10-31T02:51:49;97504.16;;;15.56;60.84
10348;BME280;5220;43.192;23.284;2022-10-31T02:54:18;97506.91;;;15.54;61.07
10348;BME280;5220;43.192;23.284;2022-10-31T02:56:46;97506.47;;;15.49;60.98
10348;BME280;5220;43.192;23.284;2022-10-31T02:59:13;97522.31;;;15.48;61.13
10348;BME280;5220;43.192;23.284;2022-10-31T03:02:00;97511.56;;;15.51;61.38
10348;BME280;5220;43.192;23.284;2022-10-31T03:07:30;97523.38;;;15.45;61.28
10348;BME280;5220;43.192;23.284;2022-10-31T03:10:04;97519.69;;;15.48;61.22
10348;BME280;5220;43.192;23.284;2022-10-31T03:12:38;97518.03;;;15.47;61.33
10348;BME280;5220;43.192;23.284;2022-10-31T03:15:23;97517.91;;;15.48;60.88
10348;BME280;5220;43.192;23.284;2022-10-31T03:17:56;97514.56;;;15.46;60.86
10348;BME280;5220;43.192;23.284;2022-10-31T03:20:30;97512.31;;;15.42;61.18
10348;BME280;5220;43.192;23.284;2022-10-31T03:23:01;97521.84;;;15.43;61.02
10348;BME280;5220;43.192;23.284;2022-10-31T03:25:30;97524.47;;;15.43;61.24
10348;BME280;5220;43.192;23.284;2022-10-31T03:27:59;97514.59;;;15.35;61.32
10348;BME280;5220;43.192;23.284;2022-10-31T03:30:28;97516.28;;;15.36;61.42
10348;BME280;5220;43.192;23.284;2022-10-31T03:32:58;97528.19;;;15.40;61.64
10348;BME280;5220;43.192;23.284;2022-10-31T03:35:28;97520.06;;;15.43;61.42
10348;BME280;5220;43.192;23.284;2022-10-31T03:37:58;97520.53;;;15.48;61.68
10348;BME280;5220;43.192;23.284;2022-10-31T03:40:27;97524.56;;;15.52;61.51
10348;BME280;5220;43.192;23.284;2022-10-31T03:42:57;97526.78;;;15.57;61.33
10348;BME280;5220;43.192;23.284;2022-10-31T03:45:27;97529.28;;;15.58;61.33
10348;BME280;5220;43.192;23.284;2022-10-31T03:47:56;97532.50;;;15.62;61.03
10348;BME280;5220;43.192;23.284;2022-10-31T03:50:28;97528.78;;;15.65;61.10
10348;BME280;5220;43.192;23.284;2022-10-31T03:53:02;97531.25;;;15.66;60.80
10348;BME280;5220;43.192;23.284;2022-10-31T03:55:33;97534.47;;;15.70;61.22
10348;BME280;5220;43.192;23.284;2022-10-31T03:58:08;97528.41;;;15.69;61.06
10348;BME280;5220;43.192;23.284;2022-10-31T04:00:38;97522.31;;;15.69;61.01
10348;BME280;5220;43.192;23.284;2022-10-31T04:03:09;97533.41;;;15.72;61.18
10348;BME280;5220;43.192;23.284;2022-10-31T04:05:42;97524.53;;;15.73;61.06
10348;BME280;5220;43.192;23.284;2022-10-31T04:08:14;97522.06;;;15.72;61.00
10348;BME280;5220;43.192;23.284;2022-10-31T04:10:43;97518.88;;;15.68;61.37
10348;BME280;5220;43.192;23.284;2022-10-31T04:13:16;97526.59;;;15.70;61.13
10348;BME280;5220;43.192;23.284;2022-10-31T04:19:06;97526.00;;;15.66;61.04
10348;BME280;5220;43.192;23.284;2022-10-31T04:22:10;97535.56;;;15.67;60.97
10348;BME280;5220;43.192;23.284;2022-10-31T04:24:43;97534.41;;;15.60;61.22
10348;BME280;5220;43.192;23.284;2022-10-31T04:33:53;97541.81;;;15.55;61.80
10348;BME280;5220;43.192;23.284;2022-10-31T04:43:15;97539.09;;;15.45;61.51
10348;BME280;5220;43.192;23.284;2022-10-31T04:52:26;97541.66;;;15.36;61.81
10348;BME280;5220;43.192;23.284;2022-10-31T04:54:52;97544.53;;;15.33;61.85
10348;BME280;5220;43.192;23.284;2022-10-31T04:57:19;97534.06;;;15.33;62.29
10348;BME280;5220;43.192;23.284;2022-10-31T04:59:47;97539.44;;;15.31;61.97
10348;BME280;5220;43.192;23.284;2022-10-31T05:02:14;97543.84;;;15.31;62.31
10348;BME280;5220;43.192;23.284;2022-10-31T05:04:41;97553.16;;;15.24;62.26
10348;BME280;5220;43.192;23.284;2022-10-31T05:07:07;97555.00;;;15.12;62.49
10348;BME280;5220;43.192;23.284;2022-10-31T05:09:34;97555.38;;;15.07;62.66
10348;BME280;5220;43.192;23.284;2022-10-31T05:12:01;97562.38;;;15.07;62.74
10348;BME280;5220;43.192;23.284;2022-10-31T05:14:27;97556.09;;;15.10;62.70
10348;BME280;5220;43.192;23.284;2022-10-31T05:23:39;97557.53;;;15.02;63.17
10348;BME280;5220;43.192;23.284;2022-10-31T05:29:28;97555.63;;;15.04;63.31
10348;BME280;5220;43.192;23.284;2022-10-31T05:31:58;97554.47;;;14.97;63.28
10348;BME280;5220;43.192;23.284;2022-10-31T05:34:25;97568.84;;;15.03;63.26
10348;BME280;5220;43.192;23.284;2022-10-31T05:36:52;97566.69;;;15.08;63.11
10348;BME280;5220;43.192;23.284;2022-10-31T05:39:20;97568.34;;;15.09;63.09
10348;BME280;5220;43.192;23.284;2022-10-31T05:41:46;97574.28;;;15.11;63.42
10348;BME280;5220;43.192;23.284;2022-10-31T05:44:13;97579.19;;;15.16;63.21
10348;BME280;5220;43.192;23.284;2022-10-31T05:46:58;97579.38;;;15.24;63.33
10348;BME280;5220;43.192;23.284;2022-10-31T05:49:25;97578.53;;;15.23;63.23
10348;BME280;5220;43.192;23.284;2022-10-31T05:51:52;97584.38;;;15.27;63.38
10348;BME280;5220;43.192;23.284;2022-10-31T05:54:20;97583.16;;;15.31;63.62
10348;BME280;5220;43.192;23.284;2022-10-31T05:56:48;97581.97;;;15.35;63.30
10348;BME280;5220;43.192;23.284;2022-10-31T05:59:14;97583.75;;;15.34;63.30
10348;BME280;5220;43.192;23.284;2022-10-31T06:01:41;97589.44;;;15.39;63.56
10348;BME280;5220;43.192;23.284;2022-10-31T06:04:08;97589.31;;;15.41;62.94
10348;BME280;5220;43.192;23.284;2022-10-31T06:06:46;97588.22;;;15.43;62.89
10348;BME280;5220;43.192;23.284;2022-10-31T06:09:13;97584.88;;;15.41;62.80
10348;BME280;5220;43.192;23.284;2022-10-31T06:11:41;97587.75;;;15.49;63.20
10348;BME280;5220;43.192;23.284;2022-10-31T06:14:08;97587.25;;;15.55;63.14
10348;BME280;5220;43.192;23.284;2022-10-31T06:16:50;97584.75;;;15.54;62.99
10348;BME280;5220;43.192;23.284;2022-10-31T06:19:17;97592.94;;;15.60;63.46
10348;BME280;5220;43.192;23.284;2022-10-31T06:21:44;97596.13;;;15.64;63.16
10348;BME280;5220;43.192;23.284;2022-10-31T06:24:10;97589.78;;;15.67;63.67
10348;BME280;5220;43.192;23.284;2022-10-31T06:26:37;97592.31;;;15.68;63.92
10348;BME280;5220;43.192;23.284;2022-10-31T06:29:05;97598.75;;;15.64;64.20
10348;BME280;5220;43.192;23.284;2022-10-31T06:31:32;97599.44;;;15.66;64.61
10348;BME280;5220;43.192;23.284;2022-10-31T06:33:59;97598.50;;;15.67;64.81
10348;BME280;5220;43.192;23.284;2022-10-31T06:36:48;97606.13;;;15.70;64.72
10348;BME280;5220;43.192;23.284;2022-10-31T06:39:15;97597.41;;;15.70;64.91
10348;BME280;5220;43.192;23.284;2022-10-31T06:41:42;97596.59;;;15.69;65.37
10348;BME280;5220;43.192;23.284;2022-10-31T06:44:10;97596.47;;;15.71;65.39
10348;BME280;5220;43.192;23.284;2022-10-31T06:49:58;97605.28;;;15.70;65.85
10348;BME280;5220;43.192;23.284;2022-10-31T06:52:25;97599.78;;;15.73;66.99
10348;BME280;5220;43.192;23.284;2022-10-31T06:54:51;97606.06;;;15.81;66.75
10348;BME280;5220;43.192;23.284;2022-10-31T06:57:18;97604.56;;;15.88;67.17
10348;BME280;5220;43.192;23.284;2022-10-31T06:59:46;97607.41;;;15.96;67.13
10348;BME280;5220;43.192;23.284;2022-10-31T07:02:13;97607.72;;;16.03;67.12
10348;BME280;5220;43.192;23.284;2022-10-31T07:04:40;97611.63;;;16.08;67.13
10348;BME280;5220;43.192;23.284;2022-10-31T07:07:06;97614.81;;;16.12;67.02
10348;BME280;5220;43.192;23.284;2022-10-31T07:09:33;97610.00;;;16.17;68.08
10348;BME280;5220;43.192;23.284;2022-10-31T07:12:00;97610.03;;;16.27;67.88
10348;BME280;5220;43.192;23.284;2022-10-31T07:14:27;97612.16;;;16.33;68.02
10348;BME280;5220;43.192;23.284;2022-10-31T07:16:55;97616.50;;;16.43;68.49
10348;BME280;5220;43.192;23.284;2022-10-31T07:22:33;97615.78;;;16.62;68.79
10348;BME280;5220;43.192;23.284;2022-10-31T07:28:22;97610.81;;;16.78;68.20
10348;BME280;5220;43.192;23.284;2022-10-31T07:30:50;97613.34;;;16.89;67.65
10348;BME280;5220;43.192;23.284;2022-10-31T07:33:19;97602.03;;;16.98;67.13
10348;BME280;5220;43.192;23.284;2022-10-31T07:36:14;97612.00;;;17.14;67.55
10348;BME280;5220;43.192;23.284;2022-10-31T07:38:41;97605.66;;;17.26;67.54
10348;BME280;5220;43.192;23.284;2022-10-31T07:41:08;97618.81;;;17.36;67.58
10348;BME280;5220;43.192;23.284;2022-10-31T07:43:35;97618.66;;;17.47;66.45
10348;BME280;5220;43.192;23.284;2022-10-31T07:52:30;97609.94;;;17.85;65.65
10348;BME280;5220;43.192;23.284;2022-10-31T07:54:57;97618.66;;;17.95;65.21
10348;BME280;5220;43.192;23.284;2022-10-31T07:57:24;97612.00;;;18.00;65.71
10348;BME280;5220;43.192;23.284;2022-10-31T07:59:50;97615.56;;;18.18;65.26
10348;BME280;5220;43.192;23.284;2022-10-31T08:02:17;97610.53;;;18.35;65.81
10348;BME280;5220;43.192;23.284;2022-10-31T08:04:44;97614.38;;;18.50;65.55
10348;BME280;5220;43.192;23.284;2022-10-31T08:07:11;97610.06;;;18.58;60.86
10348;BME280;5220;43.192;23.284;2022-10-31T08:12:58;97603.91;;;18.95;58.13
10348;BME280;5220;43.192;23.284;2022-10-31T08:25:32;97595.53;;;19.44;53.05
10348;BME280;5220;43.192;23.284;2022-10-31T08:28:00;97591.38;;;19.59;54.09
10348;BME280;5220;43.192;23.284;2022-10-31T08:30:30;97587.38;;;19.73;54.31
10348;BME280;5220;43.192;23.284;2022-10-31T08:32:58;97579.34;;;19.82;52.69
10348;BME280;5220;43.192;23.284;2022-10-31T08:35:25;97579.81;;;19.78;51.02
10348;BME280;5220;43.192;23.284;2022-10-31T08:37:52;97592.81;;;19.97;51.72
10348;BME280;5220;43.192;23.284;2022-10-31T08:40:20;97591.06;;;20.06;50.79
10348;BME280;5220;43.192;23.284;2022-10-31T08:42:47;97592.06;;;20.05;50.35
10348;BME280;5220;43.192;23.284;2022-10-31T08:48:37;97597.88;;;20.34;49.93
10348;BME280;5220;43.192;23.284;2022-10-31T08:51:04;97591.81;;;20.42;49.70
10348;BME280;5220;43.192;23.284;2022-10-31T08:53:31;97592.81;;;20.49;49.73
10348;BME280;5220;43.192;23.284;2022-10-31T08:59:19;97595.72;;;20.71;49.61
10348;BME280;5220;43.192;23.284;2022-10-31T09:01:46;97594.25;;;20.77;48.80
10348;BME280;5220;43.192;23.284;2022-10-31T09:04:14;97594.31;;;20.85;48.25
10348;BME280;5220;43.192;23.284;2022-10-31T09:06:41;97595.00;;;20.95;48.31
10348;BME280;5220;43.192;23.284;2022-10-31T09:09:07;97594.03;;;21.04;48.25
10348;BME280;5220;43.192;23.284;2022-10-31T09:11:34;97598.72;;;21.10;47.92
10348;BME280;5220;43.192;23.284;2022-10-31T09:14:01;97598.53;;;21.12;47.55
10348;BME280;5220;43.192;23.284;2022-10-31T09:19:33;97589.16;;;21.33;46.74
10348;BME280;5220;43.192;23.284;2022-10-31T09:22:01;97596.13;;;21.34;47.21
10348;BME280;5220;43.192;23.284;2022-10-31T09:24:27;97591.16;;;21.23;47.68
10348;BME280;5220;43.192;23.284;2022-10-31T09:26:54;97591.31;;;21.38;46.21
10348;BME280;5220;43.192;23.284;2022-10-31T09:29:21;97589.19;;;21.41;46.34
10348;BME280;5220;43.192;23.284;2022-10-31T09:31:48;97589.84;;;21.43;46.65
10348;BME280;5220;43.192;23.284;2022-10-31T09:34:14;97595.16;;;21.60;46.97
10348;BME280;5220;43.192;23.284;2022-10-31T09:40:05;97595.16;;;21.84;46.10
10348;BME280;5220;43.192;23.284;2022-10-31T09:42:55;97588.19;;;21.83;45.82
10348;BME280;5220;43.192;23.284;2022-10-31T09:45:27;97592.50;;;21.84;45.00
10348;BME280;5220;43.192;23.284;2022-10-31T09:48:14;97582.06;;;21.74;45.38
10348;BME280;5220;43.192;23.284;2022-10-31T09:50:46;97579.25;;;21.84;45.71
10348;BME280;5220;43.192;23.284;2022-10-31T09:53:22;97584.56;;;21.92;45.01
10348;BME280;5220;43.192;23.284;2022-10-31T09:55:52;97576.44;;;22.02;44.99
10348;BME280;5220;43.192;23.284;2022-10-31T09:58:27;97579.25;;;22.08;44.79
10348;BME280;5220;43.192;23.284;2022-10-31T10:00:58;97583.19;;;22.20;44.55
10348;BME280;5220;43.192;23.284;2022-10-31T10:03:33;97577.22;;;22.26;44.83
10348;BME280;5220;43.192;23.284;2022-10-31T10:06:07;97574.91;;;22.31;44.60
10348;BME280;5220;43.192;23.284;2022-10-31T10:08:35;97582.50;;;22.26;43.79
10348;BME280;5220;43.192;23.284;2022-10-31T10:11:20;97572.41;;;22.30;43.91
10348;BME280;5220;43.192;23.284;2022-10-31T10:14:18;97572.41;;;22.38;43.58
10348;BME280;5220;43.192;23.284;2022-10-31T10:16:58;97574.72;;;22.33;43.82
10348;BME280;5220;43.192;23.284;2022-10-31T10:19:44;97573.03;;;22.40;44.20
10348;BME280;5220;43.192;23.284;2022-10-31T10:25:38;97559.38;;;22.59;43.19
10348;BME280;5220;43.192;23.284;2022-10-31T10:34:53;97571.13;;;22.65;43.73
10348;BME280;5220;43.192;23.284;2022-10-31T10:37:24;97561.34;;;22.73;42.92
10348;BME280;5220;43.192;23.284;2022-10-31T10:39:55;97554.84;;;22.84;43.08
10348;BME280;5220;43.192;23.284;2022-10-31T10:42:26;97550.84;;;22.88;42.92
10348;BME280;5220;43.192;23.284;2022-10-31T10:45:15;97548.97;;;22.88;42.58
10348;BME280;5220;43.192;23.284;2022-10-31T11:08:35;97539.72;;;23.15;41.91
10348;BME280;5220;43.192;23.284;2022-10-31T11:11:06;97540.47;;;23.24;42.86
10348;BME280;5220;43.192;23.284;2022-10-31T11:13:36;97538.38;;;23.19;42.33
10348;BME280;5220;43.192;23.284;2022-10-31T11:19:25;97531.66;;;23.31;41.75
10348;BME280;5220;43.192;23.284;2022-10-31T11:21:53;97532.34;;;23.25;41.38
10348;BME280;5220;43.192;23.284;2022-10-31T11:24:23;97534.19;;;23.25;41.67
10348;BME280;5220;43.192;23.284;2022-10-31T11:26:51;97529.00;;;23.31;41.88
10348;BME280;5220;43.192;23.284;2022-10-31T11:29:29;97529.78;;;23.40;41.33
10348;BME280;5220;43.192;23.284;2022-10-31T11:31:57;97520.28;;;23.45;41.71
10348;BME280;5220;43.192;23.284;2022-10-31T11:34:29;97521.56;;;23.49;41.40
10348;BME280;5220;43.192;23.284;2022-10-31T11:37:21;97522.50;;;23.57;40.88
10348;BME280;5220;43.192;23.284;2022-10-31T11:39:52;97517.72;;;23.52;41.29
10348;BME280;5220;43.192;23.284;2022-10-31T11:42:22;97520.31;;;23.60;41.22
10348;BME280;5220;43.192;23.284;2022-10-31T11:44:50;97520.66;;;23.34;40.88
10348;BME280;5220;43.192;23.284;2022-10-31T11:47:28;97522.31;;;23.35;41.30
10348;BME280;5220;43.192;23.284;2022-10-31T11:50:02;97521.25;;;23.22;41.34
10348;BME280;5220;43.192;23.284;2022-10-31T11:52:38;97518.53;;;23.30;41.13
10348;BME280;5220;43.192;23.284;2022-10-31T12:01:30;97517.34;;;23.32;40.96
10348;BME280;5220;43.192;23.284;2022-10-31T12:04:04;97510.66;;;23.44;40.99
10348;BME280;5220;43.192;23.284;2022-10-31T12:09:46;97513.25;;;23.52;41.21
10348;BME280;5220;43.192;23.284;2022-10-31T12:12:32;97511.13;;;23.48;41.06
10348;BME280;5220;43.192;23.284;2022-10-31T12:15:33;97514.69;;;23.40;40.86
10348;BME280;5220;43.192;23.284;2022-10-31T12:18:28;97508.19;;;23.43;40.33
10348;BME280;5220;43.192;23.284;2022-10-31T12:21:19;97506.38;;;23.58;40.48
10348;BME280;5220;43.192;23.284;2022-10-31T12:23:56;97512.81;;;23.64;40.62
10348;BME280;5220;43.192;23.284;2022-10-31T12:26:34;97514.09;;;23.68;40.49
10348;BME280;5220;43.192;23.284;2022-10-31T12:29:21;97504.84;;;23.64;39.62
10348;BME280;5220;43.192;23.284;2022-10-31T12:31:58;97505.66;;;23.64;40.49
10348;BME280;5220;43.192;23.284;2022-10-31T12:34:46;97508.25;;;23.72;40.35
10348;BME280;5220;43.192;23.284;2022-10-31T12:37:24;97504.66;;;23.50;39.82
10348;BME280;5220;43.192;23.284;2022-10-31T12:40:05;97506.94;;;23.53;40.12
10348;BME280;5220;43.192;23.284;2022-10-31T12:42:48;97503.13;;;23.71;39.76
10348;BME280;5220;43.192;23.284;2022-10-31T12:45:35;97502.03;;;23.80;39.62
10348;BME280;5220;43.192;23.284;2022-10-31T12:51:26;97500.94;;;23.74;40.25
10348;BME280;5220;43.192;23.284;2022-10-31T12:54:14;97502.38;;;23.77;40.34
10348;BME280;5220;43.192;23.284;2022-10-31T12:56:52;97500.56;;;23.77;39.95
10348;BME280;5220;43.192;23.284;2022-10-31T12:59:24;97505.84;;;23.63;40.65
10348;BME280;5220;43.192;23.284;2022-10-31T13:01:57;97503.22;;;23.77;39.99
10348;BME280;5220;43.192;23.284;2022-10-31T13:04:36;97499.00;;;23.83;39.92
10348;BME280;5220;43.192;23.284;2022-10-31T13:07:11;97491.56;;;23.64;40.11
10348;BME280;5220;43.192;23.284;2022-10-31T13:09:46;97499.25;;;23.73;40.63
10348;BME280;5220;43.192;23.284;2022-10-31T13:12:18;97498.06;;;23.76;39.88
10348;BME280;5220;43.192;23.284;2022-10-31T13:14:49;97503.31;;;23.84;40.49
10348;BME280;5220;43.192;23.284;2022-10-31T13:17:26;97492.22;;;23.80;40.33
10348;BME280;5220;43.192;23.284;2022-10-31T13:20:13;97489.22;;;23.83;39.60
10348;BME280;5220;43.192;23.284;2022-10-31T13:22:46;97497.44;;;23.88;40.56
10348;BME280;5220;43.192;23.284;2022-10-31T13:31:58;97494.63;;;23.75;39.97
10348;BME280;5220;43.192;23.284;2022-10-31T13:34:27;97500.94;;;23.74;39.74
10348;BME280;5220;43.192;23.284;2022-10-31T13:37:01;97498.53;;;23.79;39.65
10348;BME280;5220;43.192;23.284;2022-10-31T13:39:44;97497.19;;;23.83;40.33
10348;BME280;5220;43.192;23.284;2022-10-31T13:42:17;97489.56;;;23.80;41.06
10348;BME280;5220;43.192;23.284;2022-10-31T13:44:46;97493.06;;;23.81;41.50
10348;BME280;5220;43.192;23.284;2022-10-31T13:47:24;97494.25;;;23.78;41.73
10348;BME280;5220;43.192;23.284;2022-10-31T13:50:03;97493.13;;;23.73;41.75
10348;BME280;5220;43.192;23.284;2022-10-31T13:52:30;97491.84;;;23.69;43.06
10348;BME280;5220;43.192;23.284;2022-10-31T13:54:58;97496.69;;;23.65;43.40
10348;BME280;5220;43.192;23.284;2022-10-31T13:57:30;97494.94;;;23.58;42.22
10348;BME280;5220;43.192;23.284;2022-10-31T14:00:02;97490.66;;;23.57;43.67
10348;BME280;5220;43.192;23.284;2022-10-31T14:02:32;97499.78;;;23.54;43.85
10348;BME280;5220;43.192;23.284;2022-10-31T14:05:01;97496.19;;;23.47;44.37
10348;BME280;5220;43.192;23.284;2022-10-31T14:07:30;97503.69;;;23.43;44.54
10348;BME280;5220;43.192;23.284;2022-10-31T14:10:02;97485.31;;;23.34;44.28
10348;BME280;5220;43.192;23.284;2022-10-31T14:12:33;97493.81;;;23.29;44.68
10348;BME280;5220;43.192;23.284;2022-10-31T14:15:05;97497.50;;;23.28;44.79
10348;BME280;5220;43.192;23.284;2022-10-31T14:17:45;97502.47;;;23.23;45.19
10348;BME280;5220;43.192;23.284;2022-10-31T14:20:36;97501.56;;;23.16;45.14
10348;BME280;5220;43.192;23.284;2022-10-31T14:23:35;97502.28;;;23.10;45.54
10348;BME280;5220;43.192;23.284;2022-10-31T14:29:41;97497.53;;;22.97;46.00
10348;BME280;5220;43.192;23.284;2022-10-31T14:32:19;97501.91;;;22.90;46.87
10348;BME280;5220;43.192;23.284;2022-10-31T14:35:14;97502.75;;;22.83;47.04
10348;BME280;5220;43.192;23.284;2022-10-31T14:38:08;97505.47;;;22.75;46.25
10348;BME280;5220;43.192;23.284;2022-10-31T14:40:48;97497.72;;;22.65;46.05
10348;BME280;5220;43.192;23.284;2022-10-31T14:43:41;97507.19;;;22.60;45.65
10348;BME280;5220;43.192;23.284;2022-10-31T14:46:21;97505.22;;;22.54;45.35
10348;BME280;5220;43.192;23.284;2022-10-31T14:49:16;97503.97;;;22.41;45.30
10348;BME280;5220;43.192;23.284;2022-10-31T14:55:30;97502.19;;;22.18;45.53
10348;BME280;5220;43.192;23.284;2022-10-31T14:58:07;97506.50;;;22.19;45.69
10348;BME280;5220;43.192;23.284;2022-10-31T15:00:35;97508.38;;;22.10;45.84
10348;BME280;5220;43.192;23.284;2022-10-31T15:03:10;97514.84;;;22.00;46.18
10348;BME280;5220;43.192;23.284;2022-10-31T15:05:53;97511.69;;;21.96;46.17
10348;BME280;5220;43.192;23.284;2022-10-31T15:08:31;97505.25;;;21.90;46.49
10348;BME280;5220;43.192;23.284;2022-10-31T15:11:02;97513.03;;;21.84;46.76
10348;BME280;5220;43.192;23.284;2022-10-31T15:13:29;97508.06;;;21.81;46.50
10348;BME280;5220;43.192;23.284;2022-10-31T15:16:11;97509.72;;;21.74;46.60
10348;BME280;5220;43.192;23.284;2022-10-31T15:18:48;97509.41;;;21.69;46.86
10348;BME280;5220;43.192;23.284;2022-10-31T15:21:16;97508.91;;;21.65;47.12
10348;BME280;5220;43.192;23.284;2022-10-31T15:26:56;97509.09;;;21.56;47.18
10348;BME280;5220;43.192;23.284;2022-10-31T15:29:25;97514.72;;;21.53;47.86
10348;BME280;5220;43.192;23.284;2022-10-31T15:31:55;97515.38;;;21.47;47.47
10348;BME280;5220;43.192;23.284;2022-10-31T15:34:38;97510.75;;;21.40;47.05
10348;BME280;5220;43.192;23.284;2022-10-31T15:37:09;97513.22;;;21.34;47.78
10348;BME280;5220;43.192;23.284;2022-10-31T15:39:38;97519.03;;;21.29;47.54
10348;BME280;5220;43.192;23.284;2022-10-31T15:42:17;97515.19;;;21.24;48.03
10348;BME280;5220;43.192;23.284;2022-10-31T15:44:47;97519.34;;;21.18;48.22
10348;BME280;5220;43.192;23.284;2022-10-31T15:47:16;97517.34;;;21.12;48.41
10348;BME280;5220;43.192;23.284;2022-10-31T15:49:50;97516.31;;;21.05;48.28
10348;BME280;5220;43.192;23.284;2022-10-31T15:52:24;97518.78;;;20.99;48.36
10348;BME280;5220;43.192;23.284;2022-10-31T15:54:57;97526.38;;;20.93;48.31
10348;BME280;5220;43.192;23.284;2022-10-31T15:57:24;97520.91;;;20.87;48.42
10348;BME280;5220;43.192;23.284;2022-10-31T15:59:52;97529.16;;;20.84;49.09
10348;BME280;5220;43.192;23.284;2022-10-31T16:02:21;97533.13;;;20.80;49.16
10348;BME280;5220;43.192;23.284;2022-10-31T16:04:55;97535.09;;;20.78;49.47
10348;BME280;5220;43.192;23.284;2022-10-31T16:07:22;97542.69;;;20.73;49.59
10348;BME280;5220;43.192;23.284;2022-10-31T16:09:54;97532.78;;;20.67;49.58
10348;BME280;5220;43.192;23.284;2022-10-31T16:12:22;97539.50;;;20.61;49.84
10348;BME280;5220;43.192;23.284;2022-10-31T16:14:51;97536.38;;;20.58;49.55